createdAt,value
2019-02-19T00:01:28.284Z,6.77
2019-02-19T00:05:35.090Z,6.65
2019-02-19T00:09:41.959Z,6.50
2019-02-19T00:13:48.837Z,6.68
2019-02-19T00:17:55.706Z,6.64
2019-02-19T00:22:02.701Z,6.58
2019-02-19T00:26:26.815Z,6.47
2019-02-19T00:30:33.622Z,6.25
2019-02-19T00:34:40.455Z,5.66
2019-02-19T00:38:47.246Z,5.40
2019-02-19T00:42:54.065Z,5.42
2019-02-19T00:47:00.940Z,5.59
2019-02-19T00:51:07.815Z,5.63
2019-02-19T00:55:14.720Z,5.80
2019-02-19T00:59:21.691Z,5.90
2019-02-19T01:03:28.506Z,6.21
2019-02-19T01:07:35.347Z,6.36
2019-02-19T01:11:42.168Z,6.51
2019-02-19T01:15:49.000Z,6.56
2019-02-19T01:19:55.836Z,6.67
2019-02-19T01:24:02.641Z,6.69
2019-02-19T01:28:09.892Z,6.69
2019-02-19T01:32:16.765Z,6.75
2019-02-19T01:36:23.588Z,6.77
2019-02-19T01:40:30.428Z,6.82
2019-02-19T01:44:37.292Z,6.88
2019-02-19T01:48:44.134Z,6.93
2019-02-19T01:52:51.055Z,6.97
2019-02-19T01:56:57.982Z,7.06
2019-02-19T02:01:04.847Z,7.10
2019-02-19T02:05:11.913Z,7.16
2019-02-19T02:09:18.746Z,7.27
2019-02-19T02:13:25.715Z,7.30
2019-02-19T02:17:32.604Z,7.30
2019-02-19T02:21:39.561Z,7.31
2019-02-19T02:25:46.425Z,7.36
2019-02-19T02:29:53.278Z,7.36
2019-02-19T02:34:00.137Z,7.35
2019-02-19T02:38:07.013Z,7.27
2019-02-19T02:42:13.873Z,7.23
2019-02-19T02:46:21.809Z,7.06
2019-02-19T02:50:28.616Z,7.11
2019-02-19T02:54:35.478Z,7.07
2019-02-19T02:58:42.317Z,7.03
2019-02-19T03:02:49.182Z,7.07
2019-02-19T03:07:04.365Z,6.99
2019-02-19T03:11:11.236Z,6.97
2019-02-19T03:15:18.426Z,6.98
2019-02-19T03:19:25.270Z,6.96
2019-02-19T03:23:32.084Z,6.96
2019-02-19T03:27:38.923Z,6.97
2019-02-19T03:31:45.769Z,7.05
2019-02-19T03:35:52.680Z,7.07
2019-02-19T03:39:59.511Z,7.07
2019-02-19T03:44:06.371Z,7.06
2019-02-19T03:48:13.208Z,7.10
2019-02-19T03:52:20.077Z,7.01
2019-02-19T03:56:26.870Z,7.00
2019-02-19T04:00:33.755Z,7.00
2019-02-19T04:04:40.570Z,7.06
2019-02-19T04:08:47.487Z,7.00
2019-02-19T04:12:54.320Z,7.01
2019-02-19T04:17:01.139Z,6.94
2019-02-19T04:21:09.154Z,6.92
2019-02-19T04:25:16.077Z,6.79
2019-02-19T04:29:22.913Z,6.82
2019-02-19T04:33:29.895Z,6.79
2019-02-19T04:37:36.684Z,6.78
2019-02-19T04:41:43.532Z,6.86
2019-02-19T04:45:50.369Z,6.70
2019-02-19T04:49:57.289Z,6.76
2019-02-19T04:54:04.168Z,6.72
2019-02-19T04:58:10.973Z,6.75
2019-02-19T05:02:17.861Z,6.68
2019-02-19T05:06:24.767Z,6.80
2019-02-19T05:10:31.619Z,6.78
2019-02-19T05:14:38.437Z,6.82
2019-02-19T05:18:45.381Z,6.81
2019-02-19T05:22:52.208Z,6.91
2019-02-19T05:27:00.110Z,6.93
2019-02-19T05:31:06.991Z,6.96
2019-02-19T05:35:13.882Z,6.97
2019-02-19T05:39:20.779Z,6.99
2019-02-19T05:43:27.830Z,7.02
2019-02-19T05:47:34.684Z,7.04
2019-02-19T05:51:44.245Z,7.08
2019-02-19T05:55:51.111Z,7.15
2019-02-19T05:59:57.948Z,7.21
2019-02-19T06:04:06.010Z,7.29
2019-02-19T06:08:12.983Z,7.16
2019-02-19T06:12:19.811Z,7.16
2019-02-19T06:16:26.701Z,7.01
2019-02-19T06:20:33.633Z,7.00
2019-02-19T06:24:40.540Z,6.92
2019-02-19T06:28:47.444Z,6.90
2019-02-19T06:32:54.302Z,6.93
2019-02-19T06:37:01.355Z,7.01
2019-02-19T06:41:08.330Z,6.99
2019-02-19T06:45:15.351Z,7.03
2019-02-19T06:49:22.314Z,7.10
2019-02-19T06:53:29.340Z,7.07
2019-02-19T06:57:36.192Z,7.09
2019-02-19T07:01:53.888Z,7.19
2019-02-19T07:06:00.763Z,7.19
2019-02-19T07:10:07.891Z,7.27
2019-02-19T07:14:14.871Z,7.37
2019-02-19T07:18:21.654Z,7.37
2019-02-19T07:22:28.547Z,7.43
2019-02-19T07:26:35.401Z,7.37
2019-02-19T07:30:42.268Z,7.31
2019-02-19T07:34:49.239Z,7.29
2019-02-19T07:38:56.058Z,7.43
2019-02-19T07:43:03.100Z,7.33
2019-02-19T07:47:10.155Z,7.23
2019-02-19T07:51:17.015Z,7.24
2019-02-19T07:55:24.005Z,7.32
2019-02-19T07:59:31.000Z,7.16
2019-02-19T08:03:38.091Z,7.13
2019-02-19T08:07:46.795Z,7.23
2019-02-19T08:12:12.577Z,7.01
2019-02-19T08:16:19.657Z,7.06
2019-02-19T08:20:29.240Z,7.12
2019-02-19T08:24:36.317Z,7.06
2019-02-19T08:28:43.381Z,7.02
2019-02-19T08:32:50.288Z,7.08
2019-02-19T08:36:57.394Z,7.14
2019-02-19T08:41:04.388Z,7.03
2019-02-19T08:45:11.588Z,6.94
2019-02-19T08:49:18.477Z,6.87
2019-02-19T08:53:25.365Z,7.06
2019-02-19T08:57:32.198Z,6.98
2019-02-19T09:01:39.040Z,6.84
2019-02-19T09:05:45.934Z,6.78
2019-02-19T09:09:54.073Z,6.87
2019-02-19T09:14:00.965Z,6.71
2019-02-19T09:18:07.891Z,6.66
2019-02-19T09:22:14.754Z,6.89
2019-02-19T09:26:21.607Z,6.68
2019-02-19T09:30:28.447Z,6.71
2019-02-19T09:34:35.333Z,6.61
2019-02-19T09:38:42.190Z,6.40
2019-02-19T09:42:49.104Z,6.44
2019-02-19T09:46:56.037Z,6.22
2019-02-19T09:51:05.057Z,6.27
2019-02-19T09:55:12.803Z,6.37
2019-02-19T09:59:19.702Z,6.25
2019-02-19T10:03:27.747Z,6.16
2019-02-19T10:07:34.985Z,6.14
2019-02-19T10:11:41.906Z,6.28
2019-02-19T10:15:48.814Z,6.29
2019-02-19T10:19:55.719Z,6.22
2019-02-19T10:24:02.692Z,6.23
2019-02-19T10:28:09.550Z,6.12
2019-02-19T10:32:16.530Z,6.13
2019-02-19T10:36:24.062Z,6.27
2019-02-19T10:40:32.383Z,6.34
2019-02-19T10:44:39.252Z,6.45
2019-02-19T10:48:53.721Z,6.75
2019-02-19T10:53:00.859Z,6.94
2019-02-19T10:57:10.793Z,7.02
2019-02-19T11:01:17.674Z,7.02
2019-02-19T11:05:24.618Z,7.12
2019-02-19T11:09:31.453Z,7.11
2019-02-19T11:13:38.373Z,7.28
2019-02-19T11:17:45.270Z,7.45
2019-02-19T11:21:52.198Z,7.64
2019-02-19T11:25:59.088Z,7.72
2019-02-19T11:30:07.508Z,7.71
2019-02-19T11:34:14.979Z,7.81
2019-02-19T11:38:21.925Z,8.38
2019-02-19T11:42:28.811Z,8.29
2019-02-19T11:46:35.698Z,8.52
2019-02-19T11:50:42.586Z,8.44
2019-02-19T11:54:49.373Z,8.88
2019-02-19T11:58:56.258Z,9.82
2019-02-19T12:03:03.154Z,10.46
2019-02-19T12:07:10.292Z,11.34
2019-02-19T12:11:17.094Z,11.91
2019-02-19T12:15:23.983Z,12.24
2019-02-19T12:19:30.850Z,12.66
2019-02-19T12:23:37.785Z,13.53
2019-02-19T12:27:44.782Z,13.04
2019-02-19T12:31:51.684Z,13.26
2019-02-19T12:35:58.628Z,13.39
2019-02-19T12:40:05.819Z,13.96
2019-02-19T12:44:12.810Z,13.92
2019-02-19T12:48:26.898Z,13.02
2019-02-19T12:52:33.814Z,13.23
2019-02-19T12:56:40.864Z,14.56
2019-02-19T13:00:47.797Z,14.21
2019-02-19T13:04:54.690Z,13.74
2019-02-19T13:09:01.917Z,13.42
2019-02-19T13:13:10.551Z,14.40
2019-02-19T13:17:17.768Z,14.93
2019-02-19T13:21:24.790Z,15.24
2019-02-19T13:25:31.768Z,15.37
2019-02-19T13:29:38.671Z,15.27
2019-02-19T13:33:45.661Z,15.07
2019-02-19T13:37:52.545Z,15.12
2019-02-19T13:42:00.379Z,14.81
2019-02-19T13:46:07.322Z,13.63
2019-02-19T13:50:17.734Z,13.75
2019-02-19T13:54:29.766Z,13.14
2019-02-19T13:58:36.658Z,13.17
2019-02-19T14:02:43.473Z,12.76
2019-02-19T14:06:50.324Z,12.35
2019-02-19T14:10:57.234Z,12.55
2019-02-19T14:15:17.584Z,12.42
2019-02-19T14:19:41.430Z,12.18
2019-02-19T14:24:06.419Z,12.16
2019-02-19T14:28:35.082Z,11.91
2019-02-19T14:33:06.782Z,12.02
2019-02-19T14:37:31.445Z,11.87
2019-02-19T14:42:06.229Z,11.55
2019-02-19T14:46:30.652Z,11.65
2019-02-19T14:50:55.255Z,11.52
2019-02-19T14:55:33.166Z,11.24
2019-02-19T14:59:58.999Z,11.44
2019-02-19T15:04:23.702Z,11.37
2019-02-19T15:08:48.277Z,11.53
2019-02-19T15:13:20.452Z,11.51
2019-02-19T15:17:42.420Z,11.49
2019-02-19T15:22:08.240Z,11.46
2019-02-19T15:26:45.877Z,11.27
2019-02-19T15:31:14.926Z,11.26
2019-02-19T15:35:48.471Z,11.27
2019-02-19T15:40:29.409Z,11.21
2019-02-19T15:44:55.269Z,11.18
2019-02-19T15:49:16.589Z,11.05
2019-02-19T15:53:40.605Z,11.10
2019-02-19T15:58:05.345Z,11.05
2019-02-19T16:02:34.171Z,11.15
2019-02-19T16:06:47.557Z,11.04
2019-02-19T16:11:03.066Z,10.98
2019-02-19T16:15:17.058Z,10.94
2019-02-19T16:19:38.870Z,10.89
2019-02-19T16:24:04.735Z,10.90
2019-02-19T16:28:30.850Z,10.83
2019-02-19T16:32:55.342Z,10.75
2019-02-19T16:37:11.549Z,10.75
2019-02-19T16:41:29.838Z,10.64
2019-02-19T16:45:44.780Z,10.62
2019-02-19T16:50:16.681Z,10.46
2019-02-19T16:54:54.600Z,10.41
2019-02-19T16:59:17.741Z,10.35
2019-02-19T17:03:43.529Z,10.27
2019-02-19T17:07:57.536Z,10.20
2019-02-19T17:12:18.643Z,10.17
2019-02-19T17:16:58.053Z,10.06
2019-02-19T17:21:23.786Z,9.96
2019-02-19T17:25:52.750Z,9.87
2019-02-19T17:30:12.698Z,9.85
2019-02-19T17:34:50.489Z,9.75
2019-02-19T17:39:34.435Z,9.65
2019-02-19T17:44:00.053Z,9.54
2019-02-19T17:48:25.901Z,9.40
2019-02-19T17:52:58.101Z,9.36
2019-02-19T17:57:42.227Z,9.26
2019-02-19T18:02:06.748Z,9.18
2019-02-19T18:06:38.519Z,9.13
2019-02-19T18:11:22.956Z,9.06
2019-02-19T18:15:38.951Z,9.00
2019-02-19T18:19:46.038Z,8.91
2019-02-19T18:23:53.243Z,8.89
2019-02-19T18:28:00.255Z,8.88
2019-02-19T18:32:07.538Z,8.76
2019-02-19T18:36:15.097Z,8.68
2019-02-19T18:40:22.174Z,8.66
2019-02-19T18:44:29.364Z,8.65
2019-02-19T18:48:36.431Z,8.57
2019-02-19T18:52:43.595Z,8.57
2019-02-19T18:56:50.675Z,8.47
2019-02-19T19:00:58.541Z,8.43
2019-02-19T19:05:05.659Z,8.35
2019-02-19T19:09:14.568Z,8.28
2019-02-19T19:13:21.823Z,8.22
2019-02-19T19:17:31.097Z,8.24
2019-02-19T19:21:40.709Z,8.13
2019-02-19T19:25:47.849Z,8.03
2019-02-19T19:29:55.185Z,7.96
2019-02-19T19:34:03.318Z,7.92
2019-02-19T19:38:12.433Z,7.91
2019-02-19T19:42:22.673Z,7.84
2019-02-19T19:46:30.187Z,7.86
2019-02-19T19:50:37.568Z,7.80
2019-02-19T19:54:44.949Z,7.70
2019-02-19T19:58:52.573Z,7.67
2019-02-19T20:03:01.586Z,7.69
2019-02-19T20:07:09.097Z,7.59
2019-02-19T20:11:16.912Z,7.60
2019-02-19T20:15:24.921Z,7.55
2019-02-19T20:19:37.133Z,7.57
2019-02-19T20:23:45.780Z,7.89
2019-02-19T20:27:53.380Z,7.72
2019-02-19T20:32:00.958Z,7.81
2019-02-19T20:36:11.834Z,7.81
2019-02-19T20:40:19.389Z,7.92
2019-02-19T20:44:29.909Z,7.96
2019-02-19T20:48:37.738Z,7.77
2019-02-19T20:52:45.329Z,7.58
2019-02-19T20:57:00.022Z,7.46
2019-02-19T21:01:08.220Z,7.32
2019-02-19T21:05:15.763Z,7.24
2019-02-19T21:09:23.297Z,7.13
2019-02-19T21:13:35.205Z,7.08
2019-02-19T21:17:42.275Z,7.06
2019-02-19T21:21:49.641Z,7.11
2019-02-19T21:25:57.158Z,7.06
2019-02-19T21:30:05.041Z,6.98
2019-02-19T21:34:13.635Z,6.92
2019-02-19T21:38:20.973Z,6.86
2019-02-19T21:42:28.621Z,6.78
2019-02-19T21:46:38.756Z,6.66
2019-02-19T21:50:46.246Z,6.70
2019-02-19T21:55:05.489Z,6.62
2019-02-19T21:59:13.003Z,6.57
2019-02-19T22:03:20.155Z,6.45
2019-02-19T22:07:27.405Z,6.45
2019-02-19T22:11:34.608Z,6.42
2019-02-19T22:15:42.488Z,6.31
2019-02-19T22:19:49.575Z,6.27
2019-02-19T22:23:56.750Z,6.30
2019-02-19T22:28:03.727Z,6.18
2019-02-19T22:32:11.831Z,6.24
2019-02-19T22:36:19.032Z,6.20
2019-02-19T22:40:26.106Z,6.11
2019-02-19T22:44:33.226Z,6.04
2019-02-19T22:48:40.204Z,6.00
2019-02-19T22:52:47.032Z,6.03
2019-02-19T22:56:55.263Z,5.97
2019-02-19T23:01:12.450Z,5.93
2019-02-19T23:05:20.854Z,5.93
2019-02-19T23:09:33.500Z,5.89
2019-02-19T23:13:49.129Z,5.77
2019-02-19T23:17:56.250Z,5.73
2019-02-19T23:22:03.107Z,5.66
2019-02-19T23:26:09.997Z,5.53
2019-02-19T23:30:17.132Z,5.45
2019-02-19T23:34:24.037Z,5.36
2019-02-19T23:38:30.841Z,5.28
2019-02-19T23:42:37.749Z,5.02
2019-02-19T23:46:44.608Z,5.09
2019-02-19T23:50:51.425Z,5.00
2019-02-19T23:54:58.209Z,4.97
2019-02-19T23:59:05.031Z,5.07
